Time;durP1;ratioP1;P1;durP2;ratioP2;P2;SDS_P1;SDS_P2;PMS_P1;PMS_P2;Temp;Humidity;BMP_temperature;BMP_pressure;BME280_temperature;BME280_humidity;BME280_pressure;Samples;Min_cycle;Max_cycle;Signal;HPM_P1;HPM_P2
2022/12/06 00:01:27;;;;;;;15.47;8.00;;;6.30;99.90;;;;;;5061484;28;20212;-67
2022/12/06 00:03:56;;;;;;;16.30;8.40;;;6.30;99.90;;;;;;5059113;28;20196;-67
2022/12/06 00:06:26;;;;;;;15.73;8.07;;;6.30;99.90;;;;;;5062634;28;20218;-67
2022/12/06 00:08:54;;;;;;;15.73;8.00;;;6.30;99.90;;;;;;5051460;28;20201;-67
2022/12/06 00:11:27;;;;;;;13.13;7.27;;;6.30;99.90;;;;;;5056215;28;20316;-67
2022/12/06 00:13:56;;;;;;;16.97;7.40;;;6.30;99.90;;;;;;5057483;28;20734;-66
2022/12/06 00:16:24;;;;;;;12.77;6.97;;;6.30;99.90;;;;;;5059204;28;20290;-66
2022/12/06 00:18:51;;;;;;;10.87;6.43;;;6.30;99.90;;;;;;5063546;28;20205;-66
2022/12/06 00:21:21;;;;;;;14.20;6.53;;;6.30;99.90;;;;;;5061754;28;20208;-66
2022/12/06 00:23:52;;;;;;;16.00;7.43;;;6.30;99.90;;;;;;5053966;28;20204;-66
2022/12/06 00:26:19;;;;;;;11.83;6.53;;;6.30;99.90;;;;;;5066101;28;20202;-66
2022/12/06 00:28:46;;;;;;;13.70;6.90;;;6.30;99.90;;;;;;5061185;28;20233;-68
2022/12/06 00:31:16;;;;;;;12.37;7.27;;;6.30;99.90;;;;;;5067754;28;20231;-65
2022/12/06 00:33:43;;;;;;;14.50;7.67;;;6.30;99.90;;;;;;5062046;28;20229;-66
2022/12/06 00:36:16;;;;;;;17.40;8.03;;;6.20;99.90;;;;;;5055970;28;20216;-66
2022/12/06 00:38:44;;;;;;;17.17;7.73;;;6.20;99.90;;;;;;5059056;28;20211;-66
2022/12/06 00:41:15;;;;;;;14.37;7.63;;;6.20;99.90;;;;;;5058402;28;20277;-66
2022/12/06 00:43:43;;;;;;;15.40;7.20;;;6.20;99.90;;;;;;5065473;28;20688;-66
2022/12/06 00:46:13;;;;;;;18.40;8.20;;;6.20;99.90;;;;;;5060005;28;20289;-65
2022/12/06 00:48:39;;;;;;;22.13;8.20;;;6.20;99.90;;;;;;5059887;28;20382;-66
2022/12/06 00:51:06;;;;;;;18.67;8.37;;;6.20;99.90;;;;;;5064898;28;20212;-66
2022/12/06 00:53:33;;;;;;;17.67;8.30;;;6.30;99.90;;;;;;5058006;28;20771;-66
2022/12/06 00:56:00;;;;;;;14.03;7.47;;;6.30;99.90;;;;;;5062244;28;20208;-66
2022/12/06 00:58:27;;;;;;;14.37;7.90;;;6.30;99.90;;;;;;5052266;28;20570;-66
2022/12/06 01:00:54;;;;;;;17.10;8.60;;;6.30;99.90;;;;;;5061595;28;20291;-66
2022/12/06 01:03:21;;;;;;;21.70;8.70;;;6.30;99.90;;;;;;5057718;28;20201;-66
2022/12/06 01:05:50;;;;;;;17.33;7.70;;;6.30;99.90;;;;;;5049936;28;20213;-66
2022/12/06 01:08:18;;;;;;;17.00;8.20;;;6.30;99.90;;;;;;5064820;28;20252;-66
2022/12/06 01:10:54;;;;;;;17.20;8.07;;;6.30;99.90;;;;;;5062019;28;20726;-66
2022/12/06 01:13:21;;;;;;;19.43;7.83;;;6.30;99.90;;;;;;5057468;28;20313;-66
2022/12/06 01:15:47;;;;;;;15.87;9.33;;;6.30;99.90;;;;;;5062985;28;20737;-66
2022/12/06 01:18:14;;;;;;;17.03;7.63;;;6.30;99.90;;;;;;5063335;28;20294;-67
2022/12/06 01:20:41;;;;;;;22.97;8.10;;;6.30;99.90;;;;;;5060888;28;20200;-66
2022/12/06 01:23:08;;;;;;;22.40;8.83;;;6.30;99.90;;;;;;5044629;28;20245;-67
2022/12/06 01:25:34;;;;;;;16.90;8.07;;;6.30;99.90;;;;;;5060837;28;20203;-67
2022/12/06 01:28:05;;;;;;;16.77;8.63;;;6.30;99.90;;;;;;5062089;28;20238;-67
2022/12/06 01:30:31;;;;;;;19.40;9.10;;;6.30;99.90;;;;;;5066074;28;20210;-66
2022/12/06 01:32:58;;;;;;;20.80;8.60;;;6.30;99.90;;;;;;5049576;28;20237;-67
2022/12/06 01:35:25;;;;;;;21.77;8.23;;;6.30;99.90;;;;;;5044403;28;20211;-65
2022/12/06 01:37:51;;;;;;;19.53;7.93;;;6.30;99.90;;;;;;5064927;28;20215;-67
2022/12/06 01:40:18;;;;;;;21.43;8.77;;;6.30;99.90;;;;;;5063897;28;20211;-65
2022/12/06 01:42:46;;;;;;;20.37;8.20;;;6.30;99.90;;;;;;5054705;28;20223;-66
2022/12/06 01:45:13;;;;;;;20.00;8.30;;;6.30;99.90;;;;;;5060539;28;20597;-67
2022/12/06 01:47:42;;;;;;;20.03;7.83;;;6.30;99.90;;;;;;5041746;28;20207;-67
2022/12/06 01:50:23;;;;;;;16.23;7.90;;;6.30;99.90;;;;;;5060129;28;20750;-66
2022/12/06 01:53:07;;;;;;;22.87;8.00;;;6.30;99.90;;;;;;5060826;28;20580;-67
2022/12/06 01:55:37;;;;;;;20.33;8.83;;;6.30;99.90;;;;;;5058995;28;20326;-67
2022/12/06 01:58:11;;;;;;;21.37;8.63;;;6.30;99.90;;;;;;5050108;28;20223;-66
2022/12/06 02:00:38;;;;;;;20.47;7.87;;;6.20;99.90;;;;;;5059522;28;20293;-67
2022/12/06 02:03:11;;;;;;;17.73;8.43;;;6.20;99.90;;;;;;5050842;28;20316;-66
2022/12/06 02:05:39;;;;;;;21.90;8.43;;;6.20;99.90;;;;;;5063919;28;20205;-67
2022/12/06 02:08:08;;;;;;;22.47;8.97;;;6.30;99.90;;;;;;5063808;28;20219;-67
2022/12/06 02:10:36;;;;;;;18.67;7.80;;;6.30;99.90;;;;;;5057587;28;20220;-68
2022/12/06 02:13:05;;;;;;;19.83;8.23;;;6.30;99.90;;;;;;5042684;28;20243;-67
2022/12/06 02:15:49;;;;;;;18.93;8.30;;;6.30;99.90;;;;;;5061832;28;20215;-66
2022/12/06 02:18:32;;;;;;;18.57;8.13;;;6.30;99.90;;;;;;5060625;28;20296;-67
2022/12/06 02:21:06;;;;;;;24.67;8.50;;;6.30;99.90;;;;;;5042102;28;20219;-67
2022/12/06 02:23:51;;;;;;;19.90;8.47;;;6.20;99.90;;;;;;5063719;28;20303;-66
2022/12/06 02:26:34;;;;;;;17.73;8.37;;;6.30;99.90;;;;;;5038103;28;20268;-66
2022/12/06 02:29:20;;;;;;;19.77;8.30;;;6.30;99.90;;;;;;5061936;28;20207;-66
2022/12/06 02:32:02;;;;;;;19.33;8.27;;;6.20;99.90;;;;;;5060496;28;20262;-67
2022/12/06 02:34:53;;;;;;;20.30;7.90;;;6.20;99.90;;;;;;5054452;28;20301;-67
2022/12/06 02:37:31;;;;;;;22.83;8.73;;;6.20;99.90;;;;;;5061823;28;20301;-67
2022/12/06 02:40:05;;;;;;;20.27;8.17;;;6.20;99.90;;;;;;5045615;28;20242;-66
2022/12/06 02:42:38;;;;;;;17.50;8.43;;;6.20;99.90;;;;;;5035357;28;20315;-66
2022/12/06 02:45:14;;;;;;;17.27;8.23;;;6.20;99.90;;;;;;5059156;28;20214;-66
2022/12/06 02:47:42;;;;;;;20.83;8.53;;;6.20;99.90;;;;;;5061253;28;20210;-66
2022/12/06 02:50:15;;;;;;;15.97;8.53;;;6.20;99.90;;;;;;5055964;28;20205;-67
2022/12/06 02:52:45;;;;;;;20.03;7.90;;;6.20;99.90;;;;;;5064507;28;20261;-67
2022/12/06 02:55:14;;;;;;;19.73;8.27;;;6.10;99.90;;;;;;5056371;28;20601;-67
2022/12/06 02:57:44;;;;;;;21.03;7.40;;;6.10;99.90;;;;;;5048554;28;20300;-67
2022/12/06 03:00:44;;;;;;;15.60;6.97;;;6.10;99.90;;;;;;5042631;28;20215;-67
2022/12/06 03:03:32;;;;;;;17.40;7.23;;;6.10;99.90;;;;;;5017635;28;20292;-66
2022/12/06 03:06:01;;;;;;;18.57;7.17;;;6.10;99.90;;;;;;5064362;28;20238;-66
2022/12/06 03:08:58;;;;;;;19.87;8.03;;;6.40;99.90;;;;;;5061655;28;20817;-66
2022/12/06 03:11:35;;;;;;;14.37;7.10;;;6.10;99.90;;;;;;5048533;28;20561;-66
2022/12/06 03:14:12;;;;;;;16.30;7.40;;;6.10;99.90;;;;;;5055804;28;20273;-66
2022/12/06 03:16:46;;;;;;;17.20;8.00;;;6.10;99.90;;;;;;5058832;28;20214;-66
2022/12/06 03:19:19;;;;;;;15.93;7.77;;;6.10;99.90;;;;;;5062883;28;20209;-67
2022/12/06 03:22:06;;;;;;;17.60;7.10;;;6.10;99.90;;;;;;5060190;28;20294;-67
2022/12/06 03:24:37;;;;;;;16.83;7.00;;;6.10;99.90;;;;;;5052817;28;20650;-66
2022/12/06 03:27:08;;;;;;;15.17;6.47;;;6.10;99.90;;;;;;5057628;28;20222;-66
2022/12/06 03:29:42;;;;;;;13.27;7.37;;;6.10;99.90;;;;;;5058822;28;20658;-66
2022/12/06 03:32:12;;;;;;;18.63;7.60;;;6.10;99.90;;;;;;5058728;28;20843;-66
2022/12/06 03:34:42;;;;;;;16.97;7.43;;;6.10;99.90;;;;;;5056163;28;20696;-66
2022/12/06 03:37:14;;;;;;;15.33;7.20;;;6.10;99.90;;;;;;5058874;28;20244;-66
2022/12/06 03:39:46;;;;;;;13.17;6.73;;;6.00;99.90;;;;;;5059664;28;20235;-66
2022/12/06 03:42:14;;;;;;;19.80;7.13;;;6.10;99.90;;;;;;5061112;28;20218;-66
2022/12/06 03:44:40;;;;;;;13.30;6.77;;;6.00;99.90;;;;;;5057329;28;20624;-66
2022/12/06 03:47:13;;;;;;;17.30;7.20;;;6.00;99.90;;;;;;5060531;28;20305;-66
2022/12/06 03:49:56;;;;;;;12.03;6.10;;;6.00;99.90;;;;;;5061276;28;20652;-65
2022/12/06 03:52:26;;;;;;;14.33;6.57;;;6.00;99.90;;;;;;5060710;28;20697;-66
2022/12/06 03:54:53;;;;;;;15.03;7.03;;;6.00;99.90;;;;;;5062955;28;20282;-66
2022/12/06 03:57:20;;;;;;;16.87;6.43;;;6.00;99.90;;;;;;5057440;28;20511;-66
2022/12/06 03:59:47;;;;;;;17.87;7.70;;;6.00;99.90;;;;;;5064202;28;20629;-67
2022/12/06 04:02:13;;;;;;;16.70;7.00;;;6.00;99.90;;;;;;5066031;28;20209;-66
2022/12/06 04:04:40;;;;;;;16.83;6.90;;;6.00;99.90;;;;;;5067486;28;20289;-67
2022/12/06 04:07:09;;;;;;;12.17;5.67;;;6.00;99.90;;;;;;5061863;28;20204;-66
2022/12/06 04:15:09;;;;;;;13.10;5.43;;;6.00;99.90;;;;;;5060320;28;20289;-66
2022/12/06 04:20:23;;;;;;;12.93;5.30;;;5.90;99.90;;;;;;5062055;28;20594;-66
2022/12/06 04:23:02;;;;;;;11.30;5.47;;;5.90;99.90;;;;;;5069678;28;20203;-66
2022/12/06 04:25:31;;;;;;;16.70;6.47;;;5.80;99.90;;;;;;5062049;28;20317;-66
2022/12/06 04:39:00;;;;;;;13.23;5.37;;;5.80;99.90;;;;;;5058480;28;20637;-66
2022/12/06 04:44:12;;;;;;;8.90;5.47;;;5.80;99.90;;;;;;5066837;28;20296;-66
2022/12/06 04:46:39;;;;;;;15.87;5.67;;;5.80;99.90;;;;;;5064396;28;20296;-66
2022/12/06 04:49:06;;;;;;;12.90;5.27;;;5.80;99.90;;;;;;5064990;28;20532;-66
2022/12/06 04:51:33;;;;;;;8.90;5.07;;;5.80;99.90;;;;;;5067702;28;20737;-66
2022/12/06 04:53:59;;;;;;;13.20;5.50;;;5.80;99.90;;;;;;5061976;28;20226;-66
2022/12/06 04:56:27;;;;;;;14.27;5.57;;;5.80;99.90;;;;;;5060890;28;20643;-66
2022/12/06 04:58:54;;;;;;;12.20;5.43;;;5.80;99.90;;;;;;5055427;28;20625;-66
2022/12/06 05:01:20;;;;;;;18.10;5.60;;;5.80;99.90;;;;;;5064526;28;20253;-66
2022/12/06 05:03:47;;;;;;;11.23;5.43;;;5.80;99.90;;;;;;5068139;28;20675;-66
2022/12/06 05:06:14;;;;;;;16.33;6.43;;;5.80;99.90;;;;;;5066030;28;20232;-67
2022/12/06 05:08:41;;;;;;;11.93;5.50;;;5.80;99.90;;;;;;5063063;28;20204;-66
2022/12/06 05:11:07;;;;;;;12.53;5.60;;;5.80;99.90;;;;;;5062384;28;20254;-66
2022/12/06 05:13:35;;;;;;;11.50;6.40;;;5.80;99.90;;;;;;5059160;28;20321;-66
2022/12/06 05:16:04;;;;;;;9.33;5.50;;;5.70;99.90;;;;;;5059499;28;20535;-66
2022/12/06 05:18:32;;;;;;;16.43;6.40;;;5.80;99.90;;;;;;5057630;28;20673;-66
2022/12/06 05:21:04;;;;;;;11.40;5.60;;;5.80;99.90;;;;;;5064046;28;20225;-66
2022/12/06 05:23:32;;;;;;;13.67;5.93;;;5.80;99.90;;;;;;5056455;28;20361;-66
2022/12/06 05:26:01;;;;;;;12.67;5.37;;;5.80;99.90;;;;;;5063338;28;20206;-66
2022/12/06 05:28:28;;;;;;;11.13;5.20;;;5.70;99.90;;;;;;5039126;28;20208;-66
2022/12/06 05:30:55;;;;;;;11.50;6.17;;;5.80;99.90;;;;;;5067336;28;20294;-66
2022/12/06 05:33:23;;;;;;;10.50;5.07;;;5.80;99.90;;;;;;5059499;28;20235;-66
2022/12/06 05:35:50;;;;;;;16.07;6.00;;;5.80;99.90;;;;;;5062467;28;20591;-67
2022/12/06 05:38:18;;;;;;;12.57;6.53;;;5.70;99.90;;;;;;5050888;28;20242;-66
2022/12/06 05:40:46;;;;;;;11.67;4.70;;;5.80;99.90;;;;;;5061249;28;20582;-67
2022/12/06 05:43:13;;;;;;;13.17;5.13;;;5.80;99.90;;;;;;5062908;28;20304;-67
2022/12/06 05:45:42;;;;;;;11.53;5.10;;;5.80;99.90;;;;;;5067372;28;20202;-66
2022/12/06 05:48:09;;;;;;;13.40;5.67;;;5.80;99.90;;;;;;5059766;28;20293;-67
2022/12/06 05:50:36;;;;;;;10.20;4.87;;;5.80;99.90;;;;;;5062588;28;20593;-66
2022/12/06 05:53:02;;;;;;;12.57;4.87;;;5.80;99.90;;;;;;5063732;28;20513;-66
2022/12/06 05:55:29;;;;;;;13.67;5.50;;;5.80;99.90;;;;;;5045279;28;20228;-66
2022/12/06 05:57:56;;;;;;;8.90;5.07;;;5.80;99.90;;;;;;5042569;28;20223;-66
2022/12/06 06:00:23;;;;;;;11.83;4.87;;;5.80;99.90;;;;;;5056585;28;20294;-66
2022/12/06 06:02:50;;;;;;;11.90;5.20;;;5.80;99.90;;;;;;5057302;28;20549;-66
2022/12/06 06:05:16;;;;;;;9.47;4.67;;;5.80;99.90;;;;;;5040905;28;20217;-66
2022/12/06 06:07:43;;;;;;;10.93;5.40;;;5.70;99.90;;;;;;5061155;28;20291;-65
2022/12/06 06:10:11;;;;;;;9.57;5.03;;;5.80;99.90;;;;;;5056763;28;20351;-66
2022/12/06 06:12:38;;;;;;;11.67;5.37;;;5.70;99.90;;;;;;5035536;28;20222;-66
2022/12/06 06:15:06;;;;;;;10.70;4.87;;;5.80;99.90;;;;;;5065126;28;20277;-67
2022/12/06 06:17:33;;;;;;;12.30;4.63;;;5.70;99.90;;;;;;5054318;28;20588;-67
2022/12/06 06:20:04;;;;;;;14.33;5.10;;;5.70;99.90;;;;;;5061747;28;20731;-65
2022/12/06 06:22:33;;;;;;;11.97;4.60;;;5.70;99.90;;;;;;5055583;28;20319;-66
2022/12/06 06:25:01;;;;;;;11.03;5.07;;;5.70;99.90;;;;;;5064050;28;20202;-66
2022/12/06 06:27:30;;;;;;;9.83;4.47;;;5.70;99.90;;;;;;5057235;28;20584;-66
2022/12/06 06:29:57;;;;;;;8.07;4.57;;;5.70;99.90;;;;;;5063451;28;20652;-67
2022/12/06 06:32:24;;;;;;;13.57;5.53;;;5.70;99.90;;;;;;5059073;28;20296;-66
2022/12/06 06:34:51;;;;;;;10.43;4.93;;;5.70;99.90;;;;;;5065054;28;20966;-66
2022/12/06 06:37:18;;;;;;;9.57;4.60;;;5.70;99.90;;;;;;5063119;28;20296;-66
2022/12/06 06:39:45;;;;;;;16.23;5.10;;;5.70;99.90;;;;;;5064448;28;20663;-66
2022/12/06 06:42:11;;;;;;;9.50;4.73;;;5.70;99.90;;;;;;5062328;28;20594;-66
2022/12/06 06:44:38;;;;;;;12.77;5.27;;;5.70;99.90;;;;;;5063917;28;20297;-67
2022/12/06 06:47:05;;;;;;;14.90;6.30;;;5.70;99.90;;;;;;5058119;28;20202;-67
2022/12/06 06:49:32;;;;;;;9.83;4.90;;;5.70;99.90;;;;;;5061291;28;20323;-67
2022/12/06 06:51:58;;;;;;;13.63;5.30;;;5.70;99.90;;;;;;5053254;28;20573;-67
2022/12/06 06:54:26;;;;;;;10.67;5.17;;;5.70;99.90;;;;;;5041527;28;20305;-66
2022/12/06 06:56:55;;;;;;;13.13;5.17;;;5.70;99.90;;;;;;5052995;28;20205;-67
2022/12/06 06:59:23;;;;;;;11.07;5.00;;;5.70;99.90;;;;;;5064400;28;20664;-66
2022/12/06 07:01:50;;;;;;;10.30;5.37;;;5.70;99.90;;;;;;5065082;28;20310;-66
2022/12/06 07:04:17;;;;;;;11.30;4.70;;;5.70;99.90;;;;;;5055731;28;20207;-67
2022/12/06 07:06:44;;;;;;;13.27;5.33;;;5.70;99.90;;;;;;5064027;28;20552;-66
2022/12/06 07:09:11;;;;;;;10.50;4.70;;;5.70;99.90;;;;;;5062785;28;20490;-66
2022/12/06 07:11:38;;;;;;;8.13;4.23;;;5.60;99.90;;;;;;5062706;28;20541;-66
2022/12/06 07:14:05;;;;;;;11.77;4.93;;;5.60;99.90;;;;;;5056678;28;20241;-66
2022/12/06 07:16:32;;;;;;;11.33;5.10;;;5.60;99.90;;;;;;5060215;28;20224;-67
2022/12/06 07:18:59;;;;;;;16.83;4.90;;;5.60;99.90;;;;;;5060899;28;20209;-66
2022/12/06 07:21:33;;;;;;;10.63;4.87;;;5.60;99.90;;;;;;5062961;28;20206;-66
2022/12/06 07:24:00;;;;;;;11.37;4.70;;;5.60;99.90;;;;;;5064507;28;20288;-66
2022/12/06 07:26:27;;;;;;;8.20;4.40;;;5.60;99.90;;;;;;5051339;28;20299;-66
2022/12/06 07:28:56;;;;;;;12.10;5.13;;;5.50;99.90;;;;;;5056587;28;20614;-65
2022/12/06 07:31:26;;;;;;;13.30;4.80;;;5.50;99.90;;;;;;5060428;28;20327;-67
2022/12/06 07:33:55;;;;;;;10.50;4.87;;;5.50;99.90;;;;;;5056179;28;20279;-66
2022/12/06 07:36:23;;;;;;;8.07;4.73;;;5.50;99.90;;;;;;5060642;28;20218;-66
2022/12/06 07:38:52;;;;;;;8.87;4.77;;;5.50;99.90;;;;;;5061497;28;20310;-67
2022/12/06 07:46:56;;;;;;;8.43;4.90;;;5.30;99.90;;;;;;5055431;28;20240;-67
2022/12/06 07:49:23;;;;;;;7.97;4.40;;;5.20;99.90;;;;;;5060256;28;20560;-66
2022/12/06 07:51:52;;;;;;;9.80;5.33;;;5.20;99.90;;;;;;5037948;28;20303;-66
2022/12/06 07:54:19;;;;;;;14.23;4.83;;;5.20;99.90;;;;;;5060055;28;20232;-66
2022/12/06 07:56:45;;;;;;;10.07;5.20;;;5.10;99.90;;;;;;5052296;28;20230;-66
2022/12/06 07:59:15;;;;;;;9.77;4.80;;;5.10;99.90;;;;;;5044490;28;20207;-66
2022/12/06 08:01:43;;;;;;;11.90;5.00;;;5.10;99.90;;;;;;5059150;28;20209;-66
2022/12/06 08:04:13;;;;;;;10.57;4.77;;;5.10;99.90;;;;;;5058727;28;20292;-66
2022/12/06 08:06:40;;;;;;;11.70;5.00;;;5.00;99.90;;;;;;5052721;28;20201;-66
2022/12/06 08:09:07;;;;;;;10.43;4.77;;;5.00;99.90;;;;;;5048389;28;20221;-66
2022/12/06 08:11:34;;;;;;;10.83;4.80;;;4.90;99.90;;;;;;5060030;28;20300;-65
2022/12/06 08:14:02;;;;;;;9.33;4.93;;;4.90;99.90;;;;;;5057925;28;20259;-66
2022/12/06 08:16:29;;;;;;;8.97;4.30;;;4.80;99.90;;;;;;5060709;28;20206;-67
2022/12/06 08:18:56;;;;;;;10.73;5.03;;;4.80;99.90;;;;;;5059994;28;20244;-66
2022/12/06 08:21:25;;;;;;;12.97;5.27;;;4.70;99.90;;;;;;5062354;28;20572;-66
2022/12/06 08:23:53;;;;;;;10.73;5.43;;;4.70;99.90;;;;;;5061589;28;20251;-66
2022/12/06 08:26:20;;;;;;;12.03;5.67;;;4.70;99.90;;;;;;5062748;28;20302;-66
2022/12/06 08:28:47;;;;;;;10.57;4.97;;;4.60;99.90;;;;;;5059121;28;20204;-66
2022/12/06 08:31:17;;;;;;;11.37;5.70;;;4.60;99.90;;;;;;5046677;28;20205;-66
2022/12/06 08:33:44;;;;;;;21.17;8.33;;;4.50;99.90;;;;;;5063596;28;20665;-66
2022/12/06 08:36:14;;;;;;;15.07;7.33;;;4.50;99.90;;;;;;5057213;28;20684;-66
2022/12/06 08:38:42;;;;;;;14.37;6.60;;;4.50;99.90;;;;;;5058521;28;20251;-65
2022/12/06 08:41:54;;;;;;;11.33;5.40;;;4.50;99.90;;;;;;5055638;28;20304;-67
2022/12/06 08:43:58;;;;;;;10.23;4.90;;;4.50;99.90;;;;;;5058085;28;20609;-67
2022/12/06 08:46:26;;;;;;;10.93;5.17;;;4.40;99.90;;;;;;5057323;28;20844;-66
2022/12/06 08:48:53;;;;;;;11.43;6.07;;;4.40;99.90;;;;;;5064449;28;20213;-66
2022/12/06 08:51:20;;;;;;;12.13;4.97;;;4.40;99.90;;;;;;5059056;28;20276;-66
2022/12/06 08:53:47;;;;;;;11.43;5.30;;;4.40;99.90;;;;;;5063457;28;20209;-66
2022/12/06 08:56:14;;;;;;;9.77;5.37;;;4.40;99.90;;;;;;5055630;28;20201;-67
2022/12/06 08:58:41;;;;;;;13.17;5.63;;;4.40;99.90;;;;;;5061304;28;20291;-67
2022/12/06 09:01:13;;;;;;;9.57;5.20;;;4.40;99.90;;;;;;5058527;28;20677;-66
2022/12/06 09:03:40;;;;;;;11.50;5.50;;;4.40;99.90;;;;;;5057412;28;20262;-65
2022/12/06 09:06:08;;;;;;;16.47;6.20;;;4.50;99.90;;;;;;5049299;28;20656;-65
2022/12/06 09:08:35;;;;;;;12.07;5.30;;;4.50;99.90;;;;;;5062186;28;20201;-66
2022/12/06 09:11:04;;;;;;;11.97;5.40;;;4.50;99.90;;;;;;5068341;28;20238;-66
2022/12/06 09:13:31;;;;;;;11.50;5.83;;;4.50;99.90;;;;;;5054656;28;20324;-66
2022/12/06 09:15:57;;;;;;;13.30;4.73;;;4.60;99.90;;;;;;5059220;28;20644;-65
2022/12/06 09:18:24;;;;;;;16.03;5.80;;;4.60;99.90;;;;;;5060222;28;20282;-66
2022/12/06 09:20:51;;;;;;;9.93;5.40;;;4.60;99.90;;;;;;5062445;28;20209;-67
2022/12/06 09:23:18;;;;;;;11.40;5.10;;;4.60;99.90;;;;;;5065325;28;20466;-67
2022/12/06 09:25:44;;;;;;;11.53;5.20;;;4.60;99.90;;;;;;5063749;28;20620;-65
2022/12/06 09:28:12;;;;;;;12.20;5.43;;;4.70;99.90;;;;;;5060515;28;20234;-67
2022/12/06 09:30:39;;;;;;;9.23;4.53;;;4.70;99.90;;;;;;5063575;28;21398;-66
2022/12/06 09:33:06;;;;;;;13.63;5.93;;;4.70;99.90;;;;;;5061259;28;20212;-66
2022/12/06 09:35:34;;;;;;;13.60;5.47;;;4.70;99.90;;;;;;5048386;28;20654;-66
2022/12/06 09:38:02;;;;;;;9.77;5.80;;;4.70;99.90;;;;;;5062159;28;20212;-66
2022/12/06 09:40:37;;;;;;;11.67;4.87;;;4.70;99.90;;;;;;5051126;28;20235;-66
2022/12/06 09:43:42;;;;;;;10.33;4.40;;;4.70;99.90;;;;;;5063642;28;20649;-66
2022/12/06 09:46:18;;;;;;;7.90;4.03;;;4.80;99.90;;;;;;5053287;28;20295;-66
2022/12/06 09:49:14;;;;;;;9.63;4.20;;;4.80;99.90;;;;;;5061884;28;20205;-66
2022/12/06 09:51:58;;;;;;;9.20;4.40;;;4.80;99.90;;;;;;5066981;28;20232;-67
2022/12/06 09:54:47;;;;;;;9.20;5.13;;;4.90;99.90;;;;;;5046098;28;20739;-66
2022/12/06 09:57:34;;;;;;;10.43;4.33;;;4.90;99.90;;;;;;5061480;28;20308;-66
2022/12/06 10:00:11;;;;;;;17.37;7.67;;;4.90;99.90;;;;;;5060203;28;20634;-68
2022/12/06 10:03:08;;;;;;;12.13;6.30;;;4.90;99.90;;;;;;5047944;28;20212;-65
2022/12/06 10:06:01;;;;;;;13.57;6.07;;;5.00;99.90;;;;;;5061302;28;20243;-67
2022/12/06 10:08:48;;;;;;;14.23;7.40;;;5.10;99.90;;;;;;5062966;28;20230;-65
2022/12/06 10:11:40;;;;;;;9.07;4.60;;;5.10;99.90;;;;;;5056971;28;20274;-66
2022/12/06 10:14:21;;;;;;;9.87;4.07;;;5.20;99.90;;;;;;5062445;28;20604;-66
2022/12/06 10:17:00;;;;;;;10.47;4.33;;;5.30;99.90;;;;;;5062225;28;20311;-66
2022/12/06 10:19:44;;;;;;;9.23;4.63;;;5.40;99.90;;;;;;5054513;28;20300;-66
2022/12/06 10:22:36;;;;;;;9.40;4.30;;;5.50;99.90;;;;;;5059396;28;20573;-66
2022/12/06 10:25:23;;;;;;;8.03;3.50;;;5.60;99.90;;;;;;5039453;28;20635;-65
2022/12/06 10:28:05;;;;;;;8.80;3.77;;;5.80;99.90;;;;;;5058389;28;20225;-66
2022/12/06 10:30:36;;;;;;;7.03;2.90;;;5.90;99.90;;;;;;5063002;28;20253;-67
2022/12/06 10:33:24;;;;;;;5.23;2.60;;;6.00;99.90;;;;;;5061469;28;20197;-66
2022/12/06 10:36:03;;;;;;;8.07;2.80;;;6.10;99.90;;;;;;5058093;28;20318;-66
2022/12/06 10:38:33;;;;;;;8.50;3.03;;;6.20;99.90;;;;;;5061076;28;20294;-66
2022/12/06 10:41:14;;;;;;;5.60;3.10;;;6.30;99.90;;;;;;5060675;28;20226;-65
2022/12/06 10:44:12;;;;;;;7.13;3.30;;;6.30;99.90;;;;;;5061309;28;20286;-66
2022/12/06 10:47:34;;;;;;;9.83;3.63;;;6.30;99.90;;;;;;5061307;28;20706;-66
2022/12/06 10:50:17;;;;;;;6.50;3.00;;;6.40;99.90;;;;;;5025298;28;20220;-67
2022/12/06 10:52:54;;;;;;;11.30;3.00;;;6.50;99.90;;;;;;5064437;28;20298;-66
2022/12/06 10:55:37;;;;;;;6.93;3.40;;;6.50;99.90;;;;;;5054623;28;20355;-66
2022/12/06 10:58:18;;;;;;;9.23;3.20;;;6.50;99.90;;;;;;5057639;28;20249;-66
2022/12/06 11:00:56;;;;;;;8.03;3.43;;;6.50;99.90;;;;;;5055859;28;20205;-66
2022/12/06 11:03:36;;;;;;;8.30;3.70;;;6.60;99.90;;;;;;5041180;28;20260;-66
2022/12/06 11:06:14;;;;;;;8.30;3.33;;;6.60;99.90;;;;;;5055173;28;20616;-65
2022/12/06 11:08:55;;;;;;;7.10;2.80;;;6.60;99.90;;;;;;5052990;28;20729;-66
2022/12/06 11:11:34;;;;;;;11.00;3.23;;;6.70;99.90;;;;;;5062303;28;20748;-66
2022/12/06 11:14:15;;;;;;;5.47;2.90;;;6.80;99.90;;;;;;5042277;28;20570;-66
2022/12/06 11:16:59;;;;;;;5.13;3.23;;;6.90;99.90;;;;;;5059265;28;20566;-66
2022/12/06 11:19:43;;;;;;;5.33;3.17;;;7.00;99.90;;;;;;5061816;28;20695;-65
2022/12/06 11:22:24;;;;;;;5.10;3.20;;;7.00;99.90;;;;;;5062288;28;20237;-65
2022/12/06 11:25:21;;;;;;;9.30;2.70;;;7.10;99.90;;;;;;5060511;28;20550;-65
2022/12/06 11:27:50;;;;;;;5.47;2.63;;;7.10;99.90;;;;;;5056741;28;20256;-66
2022/12/06 11:30:19;;;;;;;5.23;2.47;;;7.20;99.90;;;;;;5061862;28;20303;-67
2022/12/06 11:32:50;;;;;;;6.47;2.67;;;7.20;99.90;;;;;;5058048;28;20212;-65
2022/12/06 11:35:23;;;;;;;7.13;2.70;;;7.20;99.90;;;;;;5065152;28;20300;-65
2022/12/06 11:38:02;;;;;;;3.27;2.00;;;7.30;99.90;;;;;;5061116;28;20319;-66
2022/12/06 11:40:38;;;;;;;5.67;2.93;;;7.30;99.90;;;;;;5057110;28;20792;-65
2022/12/06 11:43:11;;;;;;;5.17;2.40;;;7.30;99.90;;;;;;5059359;28;20717;-66
2022/12/06 11:45:42;;;;;;;3.90;2.10;;;7.30;99.90;;;;;;5058998;28;20229;-65
2022/12/06 11:48:18;;;;;;;7.90;2.80;;;7.30;99.90;;;;;;5054719;28;20754;-65
2022/12/06 11:50:46;;;;;;;5.37;2.87;;;7.40;99.90;;;;;;5061196;28;20302;-66
2022/12/06 11:53:48;;;;;;;2.73;2.10;;;7.40;99.90;;;;;;5051362;28;20262;-66
2022/12/06 11:56:27;;;;;;;6.07;3.00;;;7.50;99.90;;;;;;5053182;28;20494;-65
2022/12/06 11:59:19;;;;;;;5.60;2.47;;;7.50;99.90;;;;;;5052433;28;20215;-66
2022/12/06 12:01:50;;;;;;;9.27;2.83;;;7.50;99.90;;;;;;5033756;28;20297;-66
2022/12/06 12:04:32;;;;;;;5.43;2.53;;;7.60;99.90;;;;;;5053574;28;20231;-65
2022/12/06 12:07:08;;;;;;;5.57;2.13;;;7.70;99.90;;;;;;5058184;28;20216;-67
2022/12/06 12:09:58;;;;;;;3.43;2.00;;;7.70;99.90;;;;;;5053796;28;20222;-66
2022/12/06 12:15:21;;;;;;;4.30;1.80;;;7.70;99.90;;;;;;5060086;28;20633;-66
2022/12/06 12:17:51;;;;;;;4.07;1.87;;;7.70;99.90;;;;;;5053606;28;20304;-66
2022/12/06 12:20:27;;;;;;;2.63;1.90;;;7.80;99.90;;;;;;5059929;28;20213;-66
2022/12/06 12:23:03;;;;;;;4.83;2.10;;;7.90;99.90;;;;;;5061042;28;20210;-67
2022/12/06 12:25:32;;;;;;;4.40;1.90;;;7.90;99.90;;;;;;5063577;28;20282;-66
2022/12/06 12:28:20;;;;;;;4.27;1.70;;;7.80;99.90;;;;;;5057923;28;20249;-66
2022/12/06 12:30:55;;;;;;;4.10;1.70;;;7.80;99.90;;;;;;5063024;28;20211;-66
2022/12/06 12:33:27;;;;;;;6.83;2.13;;;7.80;99.90;;;;;;5061486;28;20573;-66
2022/12/06 12:35:55;;;;;;;5.43;1.83;;;7.80;99.90;;;;;;5065622;28;20225;-66
2022/12/06 12:38:27;;;;;;;3.97;1.90;;;7.90;99.90;;;;;;5044692;28;20201;-66
2022/12/06 12:40:58;;;;;;;5.27;2.13;;;7.90;99.90;;;;;;5065020;28;20287;-66
2022/12/06 12:43:29;;;;;;;4.03;2.40;;;7.90;99.90;;;;;;5060933;28;20209;-66
2022/12/06 12:46:08;;;;;;;4.87;2.30;;;7.90;99.90;;;;;;5063197;28;20213;-66
2022/12/06 12:48:37;;;;;;;3.07;1.90;;;7.90;99.90;;;;;;5061046;28;20200;-65
2022/12/06 12:51:34;;;;;;;3.10;1.83;;;7.90;99.90;;;;;;5065008;28;20246;-65
2022/12/06 12:54:18;;;;;;;3.07;1.77;;;8.00;99.90;;;;;;5057396;28;20293;-66
2022/12/06 12:56:45;;;;;;;5.00;2.00;;;8.00;99.90;;;;;;5048038;28;20247;-66
2022/12/06 12:59:19;;;;;;;3.63;2.50;;;7.90;99.90;;;;;;5065199;28;20205;-66
2022/12/06 13:01:52;;;;;;;7.17;2.13;;;7.80;99.90;;;;;;5035666;28;20224;-66
2022/12/06 13:04:27;;;;;;;5.67;2.10;;;7.90;99.90;;;;;;5061921;28;20204;-67
2022/12/06 13:07:00;;;;;;;3.73;2.10;;;7.90;99.90;;;;;;5062498;28;20656;-65
2022/12/06 13:09:32;;;;;;;3.93;2.27;;;7.90;99.90;;;;;;5065608;28;20297;-67
2022/12/06 13:12:06;;;;;;;3.53;2.23;;;7.90;99.90;;;;;;5062372;28;20235;-66
2022/12/06 13:14:36;;;;;;;3.77;2.13;;;7.80;99.90;;;;;;5063609;28;20254;-66
2022/12/06 13:17:07;;;;;;;5.77;2.73;;;7.90;99.90;;;;;;5064079;28;20628;-66
2022/12/06 13:19:43;;;;;;;5.97;3.03;;;7.80;99.90;;;;;;5065603;28;20201;-66
2022/12/06 13:22:23;;;;;;;4.10;2.73;;;7.80;99.90;;;;;;5065263;28;20242;-66
2022/12/06 13:25:03;;;;;;;5.73;2.50;;;7.90;99.90;;;;;;5063502;28;20243;-65
2022/12/06 13:27:36;;;;;;;4.17;2.40;;;7.90;99.90;;;;;;5047554;28;20631;-66
2022/12/06 13:30:11;;;;;;;6.03;2.67;;;7.80;99.90;;;;;;5064342;28;20302;-66
2022/12/06 13:32:44;;;;;;;7.53;3.43;;;7.80;99.90;;;;;;5063867;28;20639;-66
2022/12/06 13:35:33;;;;;;;6.40;2.70;;;7.80;99.90;;;;;;5060372;28;20232;-66
2022/12/06 13:38:19;;;;;;;5.23;2.97;;;7.80;99.90;;;;;;5054449;28;20242;-66
2022/12/06 13:40:54;;;;;;;4.60;3.10;;;7.80;99.90;;;;;;5047030;28;20214;-66
2022/12/06 13:43:23;;;;;;;7.20;3.53;;;7.80;99.90;;;;;;5048907;28;20305;-66
2022/12/06 13:46:15;;;;;;;6.97;3.23;;;7.80;99.90;;;;;;5063977;28;20598;-66
2022/12/06 13:49:02;;;;;;;6.63;3.87;;;7.90;99.90;;;;;;5054409;28;20605;-66